Bethlehem, New Hampshire
Current Conditions -  °F | °C
As of 2:52 AM on Saturday 01 Nov 2014 (Local Time) from KHIE Reporting Station
Broken Clouds Broken Clouds  
Wind Chill: 34°   Ceiling: 4800
Heat Index: 40°   Visibility: 10mi
Dew Point: 29°   Wind: 8mph
Humidity: 65%   Direction: 80°E
Pressure: 29.99"   Gusts: NA
Location:  44.28°N, 71.69°W
Report Text: KHIE 010652Z AUTO 08007KT 10SM BKN048 04/M02 A2999 RMK AO2 SLP165 T00441017
Loading
Personal Weather Stations






























Interactive Weather Map
Tropical Storm Tracking
New forecast layout! Learn more

10-Day Weather Forecast

Advertisements
Track Severe Weather on mobile